createdAt,value
2022-10-02T00:02:26.538Z,6.10
2022-10-02T00:04:59.169Z,6.10
2022-10-02T00:07:39.775Z,6.10
2022-10-02T00:10:13.099Z,6.10
2022-10-02T00:12:41.154Z,6.00
2022-10-02T00:15:19.382Z,6.10
2022-10-02T00:17:49.999Z,6.10
2022-10-02T00:20:18.981Z,6.10
2022-10-02T00:23:27.844Z,6.00
2022-10-02T00:26:20.796Z,6.00
2022-10-02T00:29:12.444Z,6.10
2022-10-02T00:31:59.483Z,6.00
2022-10-02T00:34:56.778Z,6.00
2022-10-02T00:38:02.231Z,6.00
2022-10-02T00:41:06.484Z,6.10
2022-10-02T00:43:45.496Z,6.10
2022-10-02T00:46:56.421Z,6.10
2022-10-02T00:49:23.577Z,6.00
2022-10-02T00:52:16.822Z,6.10
2022-10-02T00:54:55.924Z,6.10
2022-10-02T00:57:54.007Z,6.20
2022-10-02T01:00:23.289Z,6.20
2022-10-02T01:03:17.951Z,6.30
2022-10-02T01:05:45.672Z,6.30
2022-10-02T01:08:14.297Z,6.40
2022-10-02T01:10:41.988Z,6.40
2022-10-02T01:13:09.683Z,6.40
2022-10-02T01:15:41.012Z,6.40
2022-10-02T01:18:10.247Z,6.50
2022-10-02T01:20:43.631Z,6.50
2022-10-02T01:23:32.174Z,6.50
2022-10-02T01:25:59.739Z,6.50
2022-10-02T01:28:27.957Z,6.60
2022-10-02T01:31:01.329Z,6.60
2022-10-02T01:33:29.284Z,6.60
2022-10-02T01:35:56.598Z,6.60
2022-10-02T01:38:24.954Z,6.60
2022-10-02T01:40:52.244Z,6.70
2022-10-02T01:43:33.388Z,6.70
2022-10-02T01:46:15.794Z,6.70
2022-10-02T01:49:05.496Z,6.60
2022-10-02T01:51:32.645Z,6.70
2022-10-02T01:54:16.294Z,6.60
2022-10-02T01:57:08.297Z,6.60
2022-10-02T01:59:57.019Z,6.60
2022-10-02T02:02:30.500Z,6.60
2022-10-02T02:05:06.440Z,6.60
2022-10-02T02:08:08.255Z,6.70
2022-10-02T02:11:02.202Z,6.70
2022-10-02T02:13:50.301Z,6.70
2022-10-02T02:16:23.644Z,6.70
2022-10-02T02:19:11.575Z,6.70
2022-10-02T02:21:54.449Z,6.70
2022-10-02T02:24:26.782Z,6.70
2022-10-02T02:26:58.891Z,6.60
2022-10-02T02:29:28.353Z,6.60
2022-10-02T02:31:58.497Z,6.60
2022-10-02T02:34:35.380Z,6.60
2022-10-02T02:37:13.998Z,6.60
2022-10-02T02:39:51.241Z,6.60
2022-10-02T02:42:26.094Z,6.60
2022-10-02T02:45:05.197Z,6.50
2022-10-02T02:47:40.439Z,6.50
2022-10-02T02:50:26.589Z,6.50
2022-10-02T02:52:58.075Z,6.50
2022-10-02T02:55:34.161Z,6.40
2022-10-02T02:58:39.367Z,6.40
2022-10-02T03:01:06.692Z,6.30
2022-10-02T03:03:34.233Z,6.30
2022-10-02T03:06:07.960Z,6.30
2022-10-02T03:08:37.739Z,6.30
2022-10-02T03:11:19.687Z,6.30
2022-10-02T03:14:20.825Z,6.30
2022-10-02T03:17:22.210Z,6.30
2022-10-02T03:20:10.610Z,6.40
2022-10-02T03:22:52.674Z,6.40
2022-10-02T03:25:33.465Z,6.40
2022-10-02T03:28:31.868Z,6.50
2022-10-02T03:31:06.442Z,6.50
2022-10-02T03:33:36.947Z,6.60
2022-10-02T03:36:05.719Z,6.50
2022-10-02T03:38:34.099Z,6.60
2022-10-02T03:41:01.325Z,6.60
2022-10-02T03:43:30.789Z,6.60
2022-10-02T03:45:58.071Z,6.60
2022-10-02T03:48:25.358Z,6.60
2022-10-02T03:50:52.560Z,6.70
2022-10-02T03:53:24.727Z,6.60
2022-10-02T03:55:58.097Z,6.70
2022-10-02T03:58:25.793Z,6.70
2022-10-02T04:01:14.271Z,6.70
2022-10-02T04:03:46.382Z,6.70
2022-10-02T04:06:24.309Z,6.70
2022-10-02T04:09:17.368Z,6.60
2022-10-02T04:11:50.128Z,6.70
2022-10-02T04:14:27.862Z,6.70
2022-10-02T04:17:02.425Z,6.60
2022-10-02T04:19:51.702Z,6.60
2022-10-02T04:22:25.502Z,6.70
2022-10-02T04:25:00.189Z,6.70
2022-10-02T04:27:35.585Z,6.70
2022-10-02T04:30:10.274Z,6.70
2022-10-02T04:32:37.642Z,6.70
2022-10-02T04:35:39.830Z,6.70
2022-10-02T04:38:29.873Z,6.70
2022-10-02T04:41:21.839Z,6.80
2022-10-02T04:43:48.986Z,6.80
2022-10-02T04:46:52.515Z,6.80
2022-10-02T04:49:28.423Z,6.80
2022-10-02T04:52:08.189Z,6.80
2022-10-02T04:54:43.199Z,6.80
2022-10-02T04:57:19.087Z,6.80
2022-10-02T05:00:19.698Z,6.80
2022-10-02T05:03:21.968Z,6.80
2022-10-02T05:06:26.028Z,6.80
2022-10-02T05:09:47.082Z,6.80
2022-10-02T05:12:37.406Z,6.70
2022-10-02T05:15:04.973Z,6.80
2022-10-02T05:17:53.559Z,6.80
2022-10-02T05:20:34.166Z,6.80
2022-10-02T05:23:39.457Z,6.90
2022-10-02T05:26:37.029Z,6.90
2022-10-02T05:29:07.149Z,6.90
2022-10-02T05:32:06.429Z,7.00
2022-10-02T05:34:40.705Z,7.00
2022-10-02T05:38:06.477Z,7.00
2022-10-02T05:40:52.344Z,7.10
2022-10-02T05:43:48.255Z,7.10
2022-10-02T05:46:31.669Z,7.20
2022-10-02T05:49:00.373Z,7.20
2022-10-02T05:51:46.013Z,7.30
2022-10-02T05:54:49.672Z,7.30
2022-10-02T05:57:38.600Z,7.30
2022-10-02T06:00:17.341Z,7.30
2022-10-02T06:03:02.173Z,7.30
2022-10-02T06:05:38.153Z,7.40
2022-10-02T06:08:10.259Z,7.40
2022-10-02T06:10:45.239Z,7.40
2022-10-02T06:13:24.630Z,7.40
2022-10-02T06:15:55.770Z,7.40
2022-10-02T06:18:27.049Z,7.40
2022-10-02T06:21:03.301Z,7.40
2022-10-02T06:23:41.298Z,7.50
2022-10-02T06:26:13.041Z,7.50
2022-10-02T06:29:00.619Z,7.60
2022-10-02T06:31:53.730Z,7.60
2022-10-02T06:34:21.070Z,7.60
2022-10-02T06:37:12.541Z,7.70
2022-10-02T06:40:01.159Z,7.70
2022-10-02T06:42:40.679Z,7.80
2022-10-02T06:45:26.612Z,7.80
2022-10-02T06:48:06.017Z,7.90
2022-10-02T06:50:54.347Z,7.90
2022-10-02T06:53:33.546Z,8.00
2022-10-02T06:56:13.014Z,7.90
2022-10-02T06:59:22.033Z,8.00
2022-10-02T07:01:57.344Z,8.10
2022-10-02T07:04:49.500Z,8.20
2022-10-02T07:07:53.229Z,8.20
2022-10-02T07:10:44.693Z,8.30
2022-10-02T07:13:16.733Z,8.50
2022-10-02T07:16:17.429Z,8.50
2022-10-02T07:19:19.579Z,8.50
2022-10-02T07:22:39.577Z,8.60
2022-10-02T07:25:31.102Z,8.60
2022-10-02T07:28:22.730Z,8.70
2022-10-02T07:30:56.241Z,8.80
2022-10-02T07:33:29.929Z,8.90
2022-10-02T07:36:31.117Z,8.90
2022-10-02T07:39:21.227Z,9.10
2022-10-02T07:42:19.090Z,9.10
2022-10-02T07:44:49.043Z,9.20
2022-10-02T07:47:41.142Z,9.40
2022-10-02T07:50:15.366Z,9.50
2022-10-02T07:52:56.135Z,9.50
2022-10-02T07:55:26.091Z,9.60
2022-10-02T07:58:21.056Z,9.70
2022-10-02T08:01:03.463Z,9.70
2022-10-02T08:03:42.925Z,9.70
2022-10-02T08:06:10.636Z,9.70
2022-10-02T08:08:38.949Z,9.80
2022-10-02T08:11:14.344Z,9.80
2022-10-02T08:13:55.498Z,9.80
2022-10-02T08:16:27.136Z,9.90
2022-10-02T08:19:02.962Z,9.90
2022-10-02T08:21:35.466Z,10.00
2022-10-02T08:24:14.624Z,10.00
2022-10-02T08:27:05.946Z,10.10
2022-10-02T08:29:52.228Z,10.20
2022-10-02T08:32:19.564Z,10.30
2022-10-02T08:34:47.323Z,10.40
2022-10-02T08:37:30.119Z,10.50
2022-10-02T08:40:28.586Z,10.50
2022-10-02T08:43:32.418Z,10.60
2022-10-02T08:46:14.577Z,10.70
2022-10-02T08:49:06.721Z,10.80
2022-10-02T08:52:04.695Z,10.90
2022-10-02T08:54:42.965Z,10.90
2022-10-02T08:58:11.154Z,10.90
2022-10-02T09:01:03.433Z,10.90
2022-10-02T09:03:56.654Z,10.90
2022-10-02T09:06:57.713Z,10.80
2022-10-02T09:09:48.291Z,10.80
2022-10-02T09:12:30.454Z,10.70
2022-10-02T09:15:18.547Z,10.80
2022-10-02T09:17:47.744Z,10.80
2022-10-02T09:20:32.782Z,10.70
2022-10-02T09:23:20.480Z,10.70
2022-10-02T09:26:13.081Z,10.70
2022-10-02T09:28:58.921Z,10.70
2022-10-02T09:32:04.193Z,10.70
2022-10-02T09:34:43.038Z,10.70
2022-10-02T09:37:50.691Z,10.70
2022-10-02T09:40:47.398Z,10.80
2022-10-02T09:43:33.363Z,10.90
2022-10-02T09:46:35.845Z,11.00
2022-10-02T09:49:09.046Z,11.00
2022-10-02T09:52:25.640Z,11.00
2022-10-02T09:55:09.498Z,11.10
2022-10-02T09:58:08.998Z,11.20
2022-10-02T10:00:38.058Z,11.20
2022-10-02T10:03:39.849Z,11.20
2022-10-02T10:06:25.968Z,11.20
2022-10-02T10:09:23.139Z,11.10
2022-10-02T10:12:32.139Z,11.20
2022-10-02T10:15:42.080Z,11.30
2022-10-02T10:18:36.679Z,11.50
2022-10-02T10:21:41.538Z,11.80
2022-10-02T10:24:37.340Z,12.00
2022-10-02T10:27:43.324Z,12.20
2022-10-02T10:30:44.739Z,12.50
2022-10-02T10:33:56.399Z,12.60
2022-10-02T10:36:46.724Z,12.70
2022-10-02T10:39:48.361Z,12.80
2022-10-02T10:42:28.539Z,12.90
2022-10-02T10:45:20.100Z,13.00
2022-10-02T10:48:07.694Z,13.10
2022-10-02T10:51:00.739Z,13.10
2022-10-02T10:54:05.701Z,13.10
2022-10-02T10:56:53.800Z,13.00
2022-10-02T10:59:50.699Z,12.90
2022-10-02T11:02:36.198Z,12.80
2022-10-02T11:05:18.738Z,12.80
2022-10-02T11:08:06.439Z,12.70
2022-10-02T11:10:48.439Z,12.80
2022-10-02T11:13:19.428Z,12.70
2022-10-02T11:15:46.579Z,12.60
2022-10-02T11:18:26.778Z,12.60
2022-10-02T11:21:18.539Z,12.40
2022-10-02T11:23:59.959Z,12.30
2022-10-02T11:26:56.078Z,12.20
2022-10-02T11:29:47.688Z,12.20
2022-10-02T11:32:51.543Z,12.10
2022-10-02T11:35:49.799Z,12.10
2022-10-02T11:38:53.600Z,12.00
2022-10-02T11:41:26.738Z,12.00
2022-10-02T11:44:31.441Z,12.00
2022-10-02T11:47:30.542Z,12.00
2022-10-02T11:50:23.021Z,12.00
2022-10-02T11:53:11.482Z,12.00
2022-10-02T11:55:46.504Z,12.00
2022-10-02T11:58:16.603Z,12.00
2022-10-02T12:01:08.241Z,12.00
2022-10-02T12:04:29.902Z,12.00
2022-10-02T12:07:32.003Z,12.00
2022-10-02T12:10:36.660Z,12.10
2022-10-02T12:13:16.762Z,12.10
2022-10-02T12:15:56.420Z,12.20
2022-10-02T12:18:38.741Z,12.20
2022-10-02T12:21:41.380Z,12.20
2022-10-02T12:25:02.509Z,12.30
2022-10-02T12:27:54.660Z,12.30
2022-10-02T12:30:42.523Z,12.30
2022-10-02T12:33:32.447Z,12.40
2022-10-02T12:36:15.141Z,12.40
2022-10-02T12:39:12.505Z,12.40
2022-10-02T12:42:26.960Z,12.50
2022-10-02T12:44:58.461Z,12.50
2022-10-02T12:48:07.381Z,12.50
2022-10-02T12:51:06.091Z,12.60
2022-10-02T12:53:54.383Z,12.60
2022-10-02T12:56:42.200Z,12.70
2022-10-02T12:59:32.635Z,12.70
2022-10-02T13:02:43.158Z,12.70
2022-10-02T13:05:26.302Z,12.70
2022-10-02T13:08:05.700Z,12.60
2022-10-02T13:10:37.981Z,12.60
2022-10-02T13:13:26.480Z,12.60
2022-10-02T13:16:15.226Z,12.60
2022-10-02T13:19:19.813Z,12.70
2022-10-02T13:22:11.462Z,12.70
2022-10-02T13:25:26.504Z,12.70
2022-10-02T13:28:13.899Z,12.70
2022-10-02T13:31:07.750Z,12.70
2022-10-02T13:33:56.098Z,12.60
2022-10-02T13:36:39.987Z,12.50
2022-10-02T13:39:36.477Z,12.50
2022-10-02T13:42:18.248Z,12.40
2022-10-02T13:44:57.622Z,12.30
2022-10-02T13:47:31.941Z,12.30
2022-10-02T13:50:23.864Z,12.30
2022-10-02T13:53:17.441Z,12.30
2022-10-02T13:56:15.849Z,12.40
2022-10-02T13:59:06.242Z,12.40
2022-10-02T14:02:02.321Z,12.30
2022-10-02T14:04:50.860Z,12.30
2022-10-02T14:08:04.180Z,12.30
2022-10-02T14:10:55.943Z,12.20
2022-10-02T14:13:35.133Z,12.20
2022-10-02T14:16:22.111Z,12.10
2022-10-02T14:18:55.662Z,12.00
2022-10-02T14:21:31.164Z,11.90
2022-10-02T14:24:45.032Z,11.80
2022-10-02T14:27:49.548Z,11.80
2022-10-02T14:30:38.510Z,11.80
2022-10-02T14:33:20.920Z,11.80
2022-10-02T14:35:59.021Z,11.80
2022-10-02T14:38:35.691Z,11.70
2022-10-02T14:41:22.281Z,11.70
2022-10-02T14:44:03.380Z,11.70
2022-10-02T14:47:06.583Z,11.60
2022-10-02T14:49:36.523Z,11.50
2022-10-02T14:52:27.341Z,11.40
2022-10-02T14:55:00.280Z,11.40
2022-10-02T14:57:57.424Z,11.30
2022-10-02T15:00:25.780Z,11.20
2022-10-02T15:03:11.704Z,11.10
2022-10-02T15:06:05.420Z,11.00
2022-10-02T15:08:48.282Z,11.00
2022-10-02T15:11:29.072Z,10.80
2022-10-02T15:14:07.188Z,10.70
2022-10-02T15:17:13.669Z,10.70
2022-10-02T15:19:51.863Z,10.50
2022-10-02T15:22:51.678Z,10.40
2022-10-02T15:25:41.289Z,10.40
2022-10-02T15:28:40.446Z,10.30
2022-10-02T15:31:18.206Z,10.20
2022-10-02T15:34:16.564Z,10.10
2022-10-02T15:36:56.119Z,10.00
2022-10-02T15:39:43.729Z,9.90
2022-10-02T15:42:16.249Z,9.90
2022-10-02T15:45:00.648Z,9.80
2022-10-02T15:48:00.925Z,9.70
2022-10-02T15:50:36.451Z,9.60
2022-10-02T15:53:03.496Z,9.50
2022-10-02T15:56:11.000Z,9.50
2022-10-02T15:58:58.390Z,9.40
2022-10-02T16:01:56.652Z,9.30
2022-10-02T16:04:46.821Z,9.20
2022-10-02T16:07:36.599Z,9.20
2022-10-02T16:10:27.506Z,9.10
2022-10-02T16:13:09.936Z,9.00
2022-10-02T16:16:20.348Z,9.00
2022-10-02T16:18:50.870Z,8.90
2022-10-02T16:21:29.771Z,8.80
2022-10-02T16:24:14.809Z,8.80
2022-10-02T16:27:03.499Z,8.70
2022-10-02T16:29:50.374Z,8.60
2022-10-02T16:32:35.343Z,8.60
2022-10-02T16:35:32.543Z,8.50
2022-10-02T16:38:23.208Z,8.40
2022-10-02T16:41:09.100Z,8.40
2022-10-02T16:44:00.300Z,8.30
2022-10-02T16:46:52.361Z,8.30
2022-10-02T16:50:13.009Z,8.20
2022-10-02T16:52:44.281Z,8.20
2022-10-02T16:55:38.329Z,8.10
2022-10-02T16:58:30.001Z,8.10
2022-10-02T17:01:02.269Z,8.10
2022-10-02T17:04:06.596Z,8.00
2022-10-02T17:06:44.121Z,8.00
2022-10-02T17:09:45.537Z,7.90
2022-10-02T17:12:36.050Z,7.90
2022-10-02T17:15:22.541Z,7.90
2022-10-02T17:18:41.444Z,7.80
2022-10-02T17:21:29.660Z,7.80
2022-10-02T17:24:23.200Z,7.70
2022-10-02T17:27:19.104Z,7.60
2022-10-02T17:29:56.441Z,7.60
2022-10-02T17:32:54.720Z,7.60
2022-10-02T17:35:33.454Z,7.50
2022-10-02T17:38:07.241Z,7.50
2022-10-02T17:41:11.521Z,7.40
2022-10-02T17:44:34.464Z,7.40
2022-10-02T17:47:38.100Z,7.30
2022-10-02T17:50:46.790Z,7.20
2022-10-02T17:53:55.820Z,7.20
2022-10-02T17:56:54.163Z,7.10
2022-10-02T17:59:45.803Z,7.10
2022-10-02T18:02:31.773Z,7.00
2022-10-02T18:05:23.323Z,7.00
2022-10-02T18:08:09.285Z,6.90
2022-10-02T18:11:10.224Z,6.90
2022-10-02T18:13:46.521Z,6.80
2022-10-02T18:16:42.828Z,6.80
2022-10-02T18:19:28.060Z,6.70
2022-10-02T18:22:10.801Z,6.70
2022-10-02T18:24:59.682Z,6.60
2022-10-02T18:27:57.693Z,6.50
2022-10-02T18:30:33.890Z,6.50
2022-10-02T18:33:28.661Z,6.50
2022-10-02T18:36:16.764Z,6.40
2022-10-02T18:39:26.261Z,6.40
2022-10-02T18:42:20.020Z,6.30
2022-10-02T18:45:04.182Z,6.20
2022-10-02T18:48:16.205Z,6.10
2022-10-02T18:51:32.145Z,6.10
2022-10-02T18:54:39.660Z,6.00
2022-10-02T18:57:09.981Z,6.00
2022-10-02T19:00:08.242Z,6.00
2022-10-02T19:03:10.000Z,6.00
2022-10-02T19:06:10.081Z,5.90
2022-10-02T19:09:14.301Z,5.90
2022-10-02T19:12:13.155Z,5.90
2022-10-02T19:14:46.425Z,5.90
2022-10-02T19:17:24.306Z,5.90
2022-10-02T19:19:51.861Z,5.80
2022-10-02T19:22:26.362Z,5.80
2022-10-02T19:24:59.980Z,5.80
2022-10-02T19:27:33.423Z,5.80
2022-10-02T19:30:04.120Z,5.80
2022-10-02T19:32:35.382Z,5.70
2022-10-02T19:35:20.940Z,5.80
2022-10-02T19:37:50.970Z,5.80
2022-10-02T19:40:24.464Z,5.80
2022-10-02T19:42:56.262Z,5.80
2022-10-02T19:45:27.158Z,5.70
2022-10-02T19:48:00.177Z,5.70
2022-10-02T19:50:51.668Z,5.60
2022-10-02T19:53:34.404Z,5.60
2022-10-02T19:56:07.080Z,5.60
2022-10-02T19:59:01.500Z,5.60
2022-10-02T20:01:46.701Z,5.50
2022-10-02T20:04:25.100Z,5.50
2022-10-02T20:06:58.498Z,5.50
2022-10-02T20:09:33.740Z,5.40
2022-10-02T20:12:20.185Z,5.40
2022-10-02T20:14:55.989Z,5.30
2022-10-02T20:17:23.680Z,5.30
2022-10-02T20:19:58.032Z,5.30
2022-10-02T20:22:52.630Z,5.30
2022-10-02T20:25:42.396Z,5.30
2022-10-02T20:28:22.088Z,5.20
2022-10-02T20:31:04.883Z,5.20
2022-10-02T20:33:40.095Z,5.30
2022-10-02T20:36:14.300Z,5.20
2022-10-02T20:38:55.761Z,5.20
2022-10-02T20:41:27.603Z,5.20
2022-10-02T20:44:04.763Z,5.20
2022-10-02T20:46:37.486Z,5.10
2022-10-02T20:49:31.521Z,5.10
2022-10-02T20:52:37.521Z,5.10
2022-10-02T20:55:19.862Z,5.20
2022-10-02T20:58:05.062Z,5.20
2022-10-02T21:01:10.104Z,5.20
2022-10-02T21:07:09.500Z,5.20
2022-10-02T21:10:13.504Z,5.20
2022-10-02T21:13:18.002Z,5.10
2022-10-02T21:16:10.921Z,5.20
2022-10-02T21:19:13.264Z,5.20
2022-10-02T21:21:43.632Z,5.20
2022-10-02T21:24:32.701Z,5.20
2022-10-02T21:27:18.848Z,5.20
2022-10-02T21:30:04.861Z,5.20
2022-10-02T21:32:37.940Z,5.20
2022-10-02T21:35:08.022Z,5.30
2022-10-02T21:37:56.442Z,5.30
2022-10-02T21:40:26.400Z,5.30
2022-10-02T21:43:12.162Z,5.30
2022-10-02T21:46:22.382Z,5.30
2022-10-02T21:49:23.400Z,5.30
2022-10-02T21:52:12.245Z,5.30
2022-10-02T21:55:24.363Z,5.30
2022-10-02T21:58:15.420Z,5.30
2022-10-02T22:01:15.523Z,5.40
2022-10-02T22:04:28.591Z,5.40
2022-10-02T22:07:22.578Z,5.40
2022-10-02T22:10:00.417Z,5.40
2022-10-02T22:12:27.531Z,5.40
2022-10-02T22:15:08.369Z,5.40
2022-10-02T22:17:57.201Z,5.40
2022-10-02T22:20:50.530Z,5.40
2022-10-02T22:23:43.494Z,5.40
2022-10-02T22:26:22.867Z,5.40
2022-10-02T22:28:56.202Z,5.40
2022-10-02T22:31:42.051Z,5.40
2022-10-02T22:34:43.770Z,5.40
2022-10-02T22:38:04.506Z,5.40
2022-10-02T22:40:47.365Z,5.40
2022-10-02T22:43:41.988Z,5.40
2022-10-02T22:46:47.818Z,5.40
2022-10-02T22:49:51.620Z,5.40
2022-10-02T22:52:42.653Z,5.40
2022-10-02T22:55:29.484Z,5.40
2022-10-02T22:58:03.068Z,5.40
2022-10-02T23:00:57.794Z,5.40
2022-10-02T23:03:33.487Z,5.40
2022-10-02T23:06:12.706Z,5.40
2022-10-02T23:08:55.558Z,5.40
2022-10-02T23:11:38.465Z,5.40
2022-10-02T23:14:34.945Z,5.40
2022-10-02T23:17:15.715Z,5.40
2022-10-02T23:19:49.955Z,5.40
2022-10-02T23:22:24.283Z,5.40
2022-10-02T23:25:17.835Z,5.30
2022-10-02T23:28:03.159Z,5.30
2022-10-02T23:30:33.802Z,5.30
2022-10-02T23:33:04.998Z,5.30
2022-10-02T23:35:52.244Z,5.30
2022-10-02T23:38:49.858Z,5.30
2022-10-02T23:41:40.364Z,5.30
2022-10-02T23:44:43.672Z,5.30
2022-10-02T23:47:49.434Z,5.30
2022-10-02T23:50:24.724Z,5.30
2022-10-02T23:53:10.495Z,5.30
2022-10-02T23:56:01.744Z,5.20
2022-10-02T23:58:53.886Z,5.20
